Time;durP1;ratioP1;P1;durP2;ratioP2;P2;SDS_P1;SDS_P2;PMS_P1;PMS_P2;Temp;Humidity;BMP_temperature;BMP_pressure;BME280_temperature;BME280_humidity;BME280_pressure;Samples;Min_cycle;Max_cycle;Signal;HPM_P1;HPM_P2
2021/03/30 00:01:17;;;;;;;;;;;;;;;4.23;100.00;100400.35;1785812;79;21204;-66
2021/03/30 00:03:46;;;;;;;;;;;;;;;4.18;100.00;100400.59;1794004;77;20637;-66
2021/03/30 00:06:16;;;;;;;;;;;;;;;4.16;100.00;100398.33;1817373;79;20132;-66
2021/03/30 00:08:50;;;;;;;;;;;;;;;4.19;100.00;100396.25;1817758;77;20502;-66
2021/03/30 00:11:21;;;;;;;;;;;;;;;4.19;100.00;100398.45;1818066;77;20157;-66
2021/03/30 00:13:55;;;;;;;;;;;;;;;4.21;100.00;100405.04;1817638;77;22339;-67
2021/03/30 00:16:27;;;;;;;;;;;;;;;4.19;100.00;100399.76;1815947;79;20149;-66
2021/03/30 00:18:58;;;;;;;;;;;;;;;4.23;100.00;100400.77;1817968;79;20491;-66
2021/03/30 00:21:31;;;;;;;;;;;;;;;4.24;100.00;100399.52;1818022;77;20554;-66
2021/03/30 00:24:05;;;;;;;;;;;;;;;4.24;100.00;100402.13;1817670;79;20236;-66
2021/03/30 00:26:35;;;;;;;;;;;;;;;4.26;100.00;100403.53;1815600;79;21355;-66
2021/03/30 00:29:07;;;;;;;;;;;;;;;4.27;100.00;100400.09;1817573;77;20240;-66
2021/03/30 00:31:39;;;;;;;;;;;;;;;4.29;100.00;100398.43;1817903;79;20133;-66
2021/03/30 00:34:12;;;;;;;;;;;;;;;4.31;100.00;100399.37;1815023;79;21362;-66
2021/03/30 00:36:44;;;;;;;;;;;;;;;4.31;100.00;100395.05;1817727;78;20157;-66
2021/03/30 00:39:22;;;;;;;;;;;;;;;4.31;100.00;100398.07;1818051;77;22183;-67
2021/03/30 00:41:59;;;;;;;;;;;;;;;4.34;100.00;100395.58;1817975;77;20141;-66
2021/03/30 00:44:31;;;;;;;;;;;;;;;4.35;100.00;100402.17;1807881;77;20477;-66
2021/03/30 00:47:05;;;;;;;;;;;;;;;4.38;100.00;100404.89;1785869;79;20230;-66
2021/03/30 00:49:35;;;;;;;;;;;;;;;4.40;100.00;100402.34;1770953;79;20156;-67
2021/03/30 00:52:10;;;;;;;;;;;;;;;4.39;100.00;100398.84;1768171;79;20408;-66
2021/03/30 00:54:58;;;;;;;;;;;;;;;4.38;100.00;100392.25;1684205;83;20247;-64
2021/03/30 00:57:27;;;;;;;;;;;;;;;4.35;100.00;100382.58;1773605;78;20530;-66
2021/03/30 00:59:57;;;;;;;;;;;;;;;4.32;100.00;100382.45;1774848;79;20500;-66
2021/03/30 01:02:27;;;;;;;;;;;;;;;4.31;100.00;100383.70;1769081;79;20223;-66
2021/03/30 01:04:59;;;;;;;;;;;;;;;4.29;100.00;100384.95;1770530;79;21343;-66
2021/03/30 01:07:30;;;;;;;;;;;;;;;4.29;100.00;100390.17;1768942;79;20648;-66
2021/03/30 01:10:26;;;;;;;;;;;;;;;4.26;100.00;100384.84;1768895;79;20152;-66
2021/03/30 01:13:01;;;;;;;;;;;;;;;4.26;100.00;100385.25;1768774;79;20259;-66
2021/03/30 01:15:50;;;;;;;;;;;;;;;4.24;100.00;100388.19;1769534;79;20187;-67
2021/03/30 01:18:47;;;;;;;;;;;;;;;4.24;100.00;100389.08;1729277;81;21281;-66
2021/03/30 01:21:54;;;;;;;;;;;;;;;4.26;100.00;100386.55;1844995;77;20237;-66
2021/03/30 01:24:30;;;;;;;;;;;;;;;4.17;100.00;100392.70;1806920;78;20518;-65
2021/03/30 01:27:02;;;;;;;;;;;;;;;4.12;100.00;100384.68;1844304;77;21199;-66
2021/03/30 01:29:48;;;;;;;;;;;;;;;4.07;100.00;100391.45;1858165;76;20130;-66
2021/03/30 01:32:38;;;;;;;;;;;;;;;4.02;100.00;100391.27;1836237;77;20164;-67
2021/03/30 01:35:14;;;;;;;;;;;;;;;4.00;100.00;100387.70;1839818;77;20640;-65
2021/03/30 01:37:46;;;;;;;;;;;;;;;3.96;100.00;100395.35;1816316;77;20146;-65
2021/03/30 01:40:18;;;;;;;;;;;;;;;3.89;100.00;100390.72;1850836;77;21371;-65
2021/03/30 01:42:57;;;;;;;;;;;;;;;3.77;100.00;100385.45;1807100;77;20411;-65
2021/03/30 01:45:28;;;;;;;;;;;;;;;3.66;100.00;100387.14;1778290;78;20141;-66
2021/03/30 01:48:05;;;;;;;;;;;;;;;3.64;100.00;100383.58;1820304;77;20509;-66
2021/03/30 01:50:37;;;;;;;;;;;;;;;3.65;100.00;100384.05;1807769;77;20295;-66
2021/03/30 01:53:10;;;;;;;;;;;;;;;3.66;100.00;100372.80;1809071;77;21301;-66
2021/03/30 01:55:49;;;;;;;;;;;;;;;3.68;100.00;100381.58;1817710;77;20140;-66
2021/03/30 01:58:21;;;;;;;;;;;;;;;3.67;100.00;100380.69;1846769;76;20471;-66
2021/03/30 02:00:54;;;;;;;;;;;;;;;3.66;100.00;100374.98;1817695;77;20131;-67
2021/03/30 02:03:25;;;;;;;;;;;;;;;3.69;100.00;100379.44;1790730;77;20214;-66
2021/03/30 02:06:02;;;;;;;;;;;;;;;3.71;100.00;100377.78;1756216;80;21378;-67
2021/03/30 02:08:31;;;;;;;;;;;;;;;3.73;100.00;100382.23;1790962;77;20144;-66
2021/03/30 02:11:06;;;;;;;;;;;;;;;3.70;100.00;100387.33;1831972;77;20169;-66
2021/03/30 02:13:52;;;;;;;;;;;;;;;3.70;100.00;100389.05;1830801;77;20135;-66
2021/03/30 02:18:59;;;;;;;;;;;;;;;3.63;100.00;100390.52;1800779;77;21370;-67
2021/03/30 02:21:36;;;;;;;;;;;;;;;3.62;100.00;100391.77;1762287;80;20494;-66
2021/03/30 02:24:16;;;;;;;;;;;;;;;3.63;100.00;100394.44;1759206;80;20152;-66
2021/03/30 02:26:54;;;;;;;;;;;;;;;3.61;100.00;100397.39;1761531;80;20239;-66
2021/03/30 02:29:27;;;;;;;;;;;;;;;3.58;100.00;100400.29;1777900;80;20495;-66
2021/03/30 02:31:57;;;;;;;;;;;;;;;3.54;100.00;100396.66;1755983;80;21274;-67
2021/03/30 02:34:29;;;;;;;;;;;;;;;3.53;100.00;100400.09;1759226;80;20497;-64
2021/03/30 02:36:59;;;;;;;;;;;;;;;3.54;100.00;100397.08;1786968;79;20158;-64
2021/03/30 02:39:29;;;;;;;;;;;;;;;3.51;100.00;100396.95;1789764;79;20253;-65
2021/03/30 02:41:59;;;;;;;;;;;;;;;3.51;100.00;100402.17;1773516;80;20152;-65
2021/03/30 02:44:30;;;;;;;;;;;;;;;3.48;100.00;100396.41;1779670;79;21370;-64
2021/03/30 02:47:01;;;;;;;;;;;;;;;3.47;100.00;100398.12;1784512;79;20237;-64
2021/03/30 02:49:31;;;;;;;;;;;;;;;3.52;100.00;100399.63;1772716;79;20125;-64
2021/03/30 02:52:07;;;;;;;;;;;;;;;3.52;100.00;100400.92;1761874;80;20513;-64
2021/03/30 02:54:35;;;;;;;;;;;;;;;3.53;100.00;100392.27;1781266;79;20264;-64
2021/03/30 02:57:07;;;;;;;;;;;;;;;3.56;100.00;100400.23;1789859;79;22131;-64
2021/03/30 02:59:37;;;;;;;;;;;;;;;3.56;100.00;100401.53;1766953;79;20141;-64
2021/03/30 03:02:07;;;;;;;;;;;;;;;3.58;100.00;100410.73;1773577;79;20503;-64
2021/03/30 03:04:37;;;;;;;;;;;;;;;3.59;100.00;100408.17;1770113;80;20505;-64
2021/03/30 03:07:07;;;;;;;;;;;;;;;3.52;100.00;100406.14;1768125;78;20241;-63
2021/03/30 03:09:38;;;;;;;;;;;;;;;3.43;100.00;100407.06;1767307;80;21364;-64
2021/03/30 03:12:09;;;;;;;;;;;;;;;3.35;100.00;100407.16;1785818;79;20166;-64
2021/03/30 03:14:40;;;;;;;;;;;;;;;3.34;100.00;100404.06;1732125;80;20148;-64
2021/03/30 03:17:12;;;;;;;;;;;;;;;3.35;100.00;100405.44;1758028;80;20236;-64
2021/03/30 03:19:42;;;;;;;;;;;;;;;3.35;100.00;100394.11;1760728;80;20260;-64
2021/03/30 03:22:15;;;;;;;;;;;;;;;3.34;100.00;100400.16;1728627;81;22115;-64
2021/03/30 03:24:48;;;;;;;;;;;;;;;3.33;100.00;100403.59;1758573;80;20525;-64
2021/03/30 03:27:18;;;;;;;;;;;;;;;3.33;100.00;100404.48;1758763;80;20128;-63
2021/03/30 03:29:48;;;;;;;;;;;;;;;3.33;100.00;100401.88;1772127;79;20160;-64
2021/03/30 03:32:23;;;;;;;;;;;;;;;3.36;100.00;100399.80;1777073;79;20152;-64
2021/03/30 03:34:53;;;;;;;;;;;;;;;3.40;100.00;100407.83;1758542;81;21368;-64
2021/03/30 03:37:22;;;;;;;;;;;;;;;3.41;100.00;100413.52;1760604;79;20146;-64
2021/03/30 03:39:52;;;;;;;;;;;;;;;3.40;100.00;100409.13;1767779;80;20130;-64
2021/03/30 03:42:21;;;;;;;;;;;;;;;3.40;100.00;100410.43;1789690;80;20130;-63
2021/03/30 03:44:52;;;;;;;;;;;;;;;3.37;100.00;100408.11;1785439;79;20205;-63
2021/03/30 03:47:22;;;;;;;;;;;;;;;3.36;100.00;100412.44;1744880;79;21210;-63
2021/03/30 03:49:52;;;;;;;;;;;;;;;3.26;100.00;100405.42;1784119;80;20146;-64
2021/03/30 03:52:21;;;;;;;;;;;;;;;3.15;100.00;100407.16;1769998;79;20146;-64
2021/03/30 03:54:51;;;;;;;;;;;;;;;3.07;100.00;100408.54;1759316;80;20133;-64
2021/03/30 03:57:33;;;;;;;;;;;;;;;2.98;100.00;100409.44;1769513;80;20503;-64
2021/03/30 04:00:04;;;;;;;;;;;;;;;2.90;100.00;100407.33;1767491;80;21367;-63
2021/03/30 04:02:57;;;;;;;;;;;;;;;2.83;100.00;100414.84;1785170;80;20269;-63
2021/03/30 04:05:45;;;;;;;;;;;;;;;2.80;100.00;100417.30;1789428;79;20240;-63
2021/03/30 04:08:16;;;;;;;;;;;;;;;2.83;100.00;100417.44;1789240;79;20224;-63
2021/03/30 04:10:48;;;;;;;;;;;;;;;2.89;100.00;100422.07;1789478;80;20158;-63
2021/03/30 04:13:18;;;;;;;;;;;;;;;2.94;100.00;100415.76;1777934;80;22277;-63
2021/03/30 04:15:48;;;;;;;;;;;;;;;2.97;100.00;100418.09;1767758;80;20663;-64
2021/03/30 04:18:17;;;;;;;;;;;;;;;2.98;100.00;100425.08;1754902;80;20165;-63
2021/03/30 04:20:47;;;;;;;;;;;;;;;2.98;100.00;100411.16;1789458;78;20161;-64
2021/03/30 04:23:22;;;;;;;;;;;;;;;2.98;100.00;100413.36;1807480;77;20224;-65
2021/03/30 04:25:48;;;;;;;;;;;;;;;3.02;100.00;100414.38;1782427;78;21366;-64
2021/03/30 04:28:18;;;;;;;;;;;;;;;3.04;100.00;100418.84;1797919;77;20214;-64
2021/03/30 04:30:47;;;;;;;;;;;;;;;3.09;100.00;100416.02;1808902;78;20489;-64
2021/03/30 04:33:17;;;;;;;;;;;;;;;3.15;100.00;100417.59;1797058;78;20138;-64
2021/03/30 04:35:46;;;;;;;;;;;;;;;3.17;100.00;100413.74;1791994;78;20484;-65
2021/03/30 04:38:17;;;;;;;;;;;;;;;3.20;100.00;100418.20;1777724;77;22318;-65
2021/03/30 04:40:52;;;;;;;;;;;;;;;3.21;100.00;100422.59;1800424;78;20228;-66
2021/03/30 04:43:21;;;;;;;;;;;;;;;3.22;100.00;100418.74;1787016;78;20247;-66
2021/03/30 04:45:50;;;;;;;;;;;;;;;3.27;100.00;100431.98;1776582;79;20357;-66
2021/03/30 04:48:19;;;;;;;;;;;;;;;3.34;100.00;100436.66;1812893;78;20123;-66
2021/03/30 04:50:51;;;;;;;;;;;;;;;3.36;100.00;100434.60;1820460;77;21203;-66
2021/03/30 04:53:21;;;;;;;;;;;;;;;3.39;100.00;100437.34;1786797;78;20490;-66
2021/03/30 04:55:50;;;;;;;;;;;;;;;3.42;100.00;100445.71;1804635;79;20145;-66
2021/03/30 04:58:20;;;;;;;;;;;;;;;3.51;100.00;100446.52;1807929;79;20129;-66
2021/03/30 05:00:49;;;;;;;;;;;;;;;3.58;100.00;100450.75;1805577;77;20229;-66
2021/03/30 05:03:19;;;;;;;;;;;;;;;3.62;100.00;100453.97;1805953;77;21203;-66
2021/03/30 05:05:48;;;;;;;;;;;;;;;3.63;100.00;100459.66;1844006;77;20127;-66
2021/03/30 05:08:18;;;;;;;;;;;;;;;3.64;100.00;100453.62;1844450;77;20127;-65
2021/03/30 05:10:50;;;;;;;;;;;;;;;3.66;100.00;100453.27;1844035;77;20214;-65
2021/03/30 05:13:19;;;;;;;;;;;;;;;3.68;100.00;100454.23;1850063;77;20154;-65
2021/03/30 05:15:49;;;;;;;;;;;;;;;3.67;100.00;100451.55;1809000;77;21130;-66
2021/03/30 05:18:18;;;;;;;;;;;;;;;3.62;100.00;100459.19;1795256;78;20133;-65
2021/03/30 05:20:48;;;;;;;;;;;;;;;3.57;100.00;100459.41;1795774;79;20126;-64
2021/03/30 05:23:17;;;;;;;;;;;;;;;3.57;100.00;100459.81;1806644;77;20132;-65
2021/03/30 05:25:48;;;;;;;;;;;;;;;3.61;100.00;100460.02;1818990;79;20506;-64
2021/03/30 05:28:18;;;;;;;;;;;;;;;3.63;100.00;100458.36;1821113;77;21268;-65
2021/03/30 05:30:47;;;;;;;;;;;;;;;3.65;100.00;100459.31;1819317;79;20148;-64
2021/03/30 05:33:17;;;;;;;;;;;;;;;3.73;100.00;100462.24;1823204;77;20164;-66
2021/03/30 05:35:46;;;;;;;;;;;;;;;3.79;100.00;100462.12;1837284;77;20254;-65
2021/03/30 05:38:15;;;;;;;;;;;;;;;3.88;100.00;100465.94;1808973;77;20110;-63
2021/03/30 05:40:44;;;;;;;;;;;;;;;3.98;100.00;100461.16;1803337;79;22115;-63
2021/03/30 05:43:13;;;;;;;;;;;;;;;4.08;100.00;100463.73;1818845;77;20240;-63
2021/03/30 05:45:44;;;;;;;;;;;;;;;4.18;100.00;100464.98;1835411;77;20214;-63
2021/03/30 05:48:16;;;;;;;;;;;;;;;4.29;100.00;100472.45;1856612;77;20111;-63
2021/03/30 05:50:45;;;;;;;;;;;;;;;4.36;100.00;100467.95;1802315;79;20216;-63
2021/03/30 05:53:15;;;;;;;;;;;;;;;4.50;100.00;100470.21;1813323;79;21270;-63
2021/03/30 05:55:46;;;;;;;;;;;;;;;4.58;100.00;100466.17;1740295;80;20155;-63
2021/03/30 05:58:16;;;;;;;;;;;;;;;4.66;100.00;100474.78;1787257;80;20520;-63
2021/03/30 06:00:46;;;;;;;;;;;;;;;4.71;100.00;100472.34;1770389;79;20213;-63
2021/03/30 06:03:18;;;;;;;;;;;;;;;4.79;100.00;100479.20;1808407;79;20134;-64
2021/03/30 06:05:49;;;;;;;;;;;;;;;4.85;100.00;100471.17;1816417;79;21373;-64
2021/03/30 06:08:17;;;;;;;;;;;;;;;4.97;100.00;100479.89;1777935;79;20149;-64
2021/03/30 06:10:47;;;;;;;;;;;;;;;5.04;100.00;100472.75;1770755;77;20481;-63
2021/03/30 06:13:45;;;;;;;;;;;;;;;5.12;100.00;100469.10;1811114;77;20137;-64
2021/03/30 06:16:39;;;;;;;;;;;;;;;5.20;100.00;100472.89;1808827;79;20153;-64
2021/03/30 06:19:13;;;;;;;;;;;;;;;5.33;100.00;100467.30;1818818;79;20196;-64
2021/03/30 06:21:46;;;;;;;;;;;;;;;5.46;100.00;100466.00;1809041;79;20170;-64
2021/03/30 06:24:25;;;;;;;;;;;;;;;5.55;100.00;100466.32;1762355;80;20486;-66
2021/03/30 06:27:05;;;;;;;;;;;;;;;5.61;100.00;100468.73;1758516;80;20213;-64
2021/03/30 06:29:39;;;;;;;;;;;;;;;5.69;100.00;100471.64;1756963;80;20491;-64
2021/03/30 06:32:11;;;;;;;;;;;;;;;5.78;100.00;100477.61;1758658;80;21197;-64
2021/03/30 06:34:43;;;;;;;;;;;;;;;5.88;100.00;100484.94;1763188;80;20218;-64
2021/03/30 06:37:33;;;;;;;;;;;;;;;5.93;100.00;100486.02;1788083;80;20195;-64
2021/03/30 06:40:22;;;;;;;;;;;;;;;5.97;100.00;100486.17;1779021;79;20140;-64
2021/03/30 06:42:55;;;;;;;;;;;;;;;6.07;100.00;100483.44;1777096;79;20211;-64
2021/03/30 06:45:27;;;;;;;;;;;;;;;6.15;100.00;100488.55;1777015;79;21303;-66
2021/03/30 06:47:58;;;;;;;;;;;;;;;6.22;100.00;100489.62;1747552;79;20551;-64
2021/03/30 06:50:32;;;;;;;;;;;;;;;6.26;100.00;100477.98;1747731;79;20226;-64
2021/03/30 06:53:15;;;;;;;;;;;;;;;6.33;100.00;100487.36;1777065;79;20135;-66
2021/03/30 06:55:52;;;;;;;;;;;;;;;6.35;100.00;100483.94;1777112;79;20156;-64
2021/03/30 06:58:22;;;;;;;;;;;;;;;6.44;100.00;100492.52;1777079;79;21303;-67
2021/03/30 07:00:52;;;;;;;;;;;;;;;6.54;100.00;100491.97;1777859;79;20170;-66
2021/03/30 07:03:22;;;;;;;;;;;;;;;6.67;100.00;100497.20;1771027;80;20496;-67
2021/03/30 07:05:56;;;;;;;;;;;;;;;6.79;100.00;100493.64;1780817;80;20639;-67
2021/03/30 07:08:26;;;;;;;;;;;;;;;6.93;100.00;100494.94;1758646;80;20291;-64
2021/03/30 07:10:57;;;;;;;;;;;;;;;7.07;100.00;100490.98;1759110;80;20593;-67
2021/03/30 07:13:27;;;;;;;;;;;;;;;7.23;100.00;100487.10;1789673;79;20169;-65
2021/03/30 07:16:02;;;;;;;;;;;;;;;7.41;100.00;100490.23;1789746;79;20166;-68
2021/03/30 07:18:37;;;;;;;;;;;;;;;7.58;100.00;100494.67;1789724;80;20237;-67
2021/03/30 07:21:22;;;;;;;;;;;;;;;7.72;100.00;100495.05;1789718;80;20150;-65
2021/03/30 07:23:58;;;;;;;;;;;;;;;7.85;100.00;100499.77;1770923;80;21348;-67
2021/03/30 07:26:34;;;;;;;;;;;;;;;8.01;100.00;100499.73;1764861;80;20271;-66
2021/03/30 07:29:06;;;;;;;;;;;;;;;8.15;100.00;100497.06;1777882;80;20132;-64
2021/03/30 07:31:48;;;;;;;;;;;;;;;8.29;100.00;100501.35;1775934;80;20216;-65
2021/03/30 07:34:33;;;;;;;;;;;;;;;8.42;100.00;100499.09;1785358;80;20242;-67
2021/03/30 07:37:04;;;;;;;;;;;;;;;8.58;100.00;100501.68;1786012;80;21207;-67
2021/03/30 07:39:36;;;;;;;;;;;;;;;8.76;100.00;100499.90;1785136;80;20298;-68
2021/03/30 07:42:06;;;;;;;;;;;;;;;8.93;100.00;100509.48;1744091;81;20270;-64
2021/03/30 07:44:35;;;;;;;;;;;;;;;9.07;100.00;100507.64;1759197;81;20578;-64
2021/03/30 07:47:05;;;;;;;;;;;;;;;9.19;100.00;100508.33;1760659;80;20212;-66
2021/03/30 07:49:44;;;;;;;;;;;;;;;9.33;100.00;100512.56;1756636;80;21404;-67
2021/03/30 07:52:19;;;;;;;;;;;;;;;9.43;100.00;100504.87;1753429;80;20211;-65
2021/03/30 07:55:27;;;;;;;;;;;;;;;9.54;100.00;100499.85;1750843;81;20135;-68
2021/03/30 07:58:13;;;;;;;;;;;;;;;9.59;100.00;100504.78;1750804;80;20223;-64
2021/03/30 08:00:45;;;;;;;;;;;;;;;9.72;100.00;100513.38;1755519;79;20233;-64
2021/03/30 08:03:23;;;;;;;;;;;;;;;9.84;100.00;100516.66;1781667;78;21476;-67
2021/03/30 08:06:18;;;;;;;;;;;;;;;9.96;100.00;100512.08;1809935;78;20212;-67
2021/03/30 08:08:58;;;;;;;;;;;;;;;10.13;100.00;100518.97;1785670;79;20210;-66
2021/03/30 08:11:50;;;;;;;;;;;;;;;10.32;100.00;100514.49;1786629;80;20135;-65
2021/03/30 08:14:28;;;;;;;;;;;;;;;10.45;100.00;100513.86;1771661;80;20243;-72
2021/03/30 08:17:01;;;;;;;;;;;;;;;10.57;100.00;100518.02;1764987;81;20227;-67
2021/03/30 08:19:30;;;;;;;;;;;;;;;10.68;100.00;100512.89;1766362;81;20589;-68
2021/03/30 08:22:09;;;;;;;;;;;;;;;10.83;100.00;100519.72;1775196;79;20213;-65
2021/03/30 08:24:49;;;;;;;;;;;;;;;10.93;100.00;100516.81;1807787;79;20730;-65
2021/03/30 08:27:38;;;;;;;;;;;;;;;11.09;100.00;100513.52;1807702;79;20515;-66
2021/03/30 08:30:28;;;;;;;;;;;;;;;11.25;100.00;100511.53;1807630;79;20645;-67
2021/03/30 08:32:58;;;;;;;;;;;;;;;11.39;100.00;100517.02;1805558;78;20150;-68
2021/03/30 08:35:31;;;;;;;;;;;;;;;11.52;100.00;100512.33;1799958;78;20505;-67
2021/03/30 08:38:01;;;;;;;;;;;;;;;11.65;100.00;100514.67;1790254;80;20214;-67
2021/03/30 08:40:40;;;;;;;;;;;;;;;11.75;100.00;100518.30;1790201;80;20226;-67
2021/03/30 08:43:16;;;;;;;;;;;;;;;11.82;100.00;100510.92;1790182;80;20119;-68
2021/03/30 08:45:55;;;;;;;;;;;;;;;11.96;100.00;100514.19;1790127;80;20202;-68
2021/03/30 08:48:38;;;;;;;;;;;;;;;12.10;100.00;100512.11;1784550;78;20217;-65
2021/03/30 08:51:10;;;;;;;;;;;;;;;12.32;100.00;100517.19;1798832;79;20118;-68
2021/03/30 08:53:42;;;;;;;;;;;;;;;12.48;100.00;100513.35;1798793;79;20119;-67
2021/03/30 08:56:13;;;;;;;;;;;;;;;12.61;100.00;100513.89;1807735;78;22273;-67
2021/03/30 08:58:44;;;;;;;;;;;;;;;12.68;100.00;100512.17;1825680;78;20152;-67
2021/03/30 09:01:13;;;;;;;;;;;;;;;12.80;100.00;100513.61;1825655;78;20164;-67
2021/03/30 09:03:44;;;;;;;;;;;;;;;12.86;100.00;100516.30;1825673;78;20216;-66
2021/03/30 09:06:35;;;;;;;;;;;;;;;12.93;100.00;100511.92;1825707;78;20211;-67
2021/03/30 09:09:03;;;;;;;;;;;;;;;13.03;100.00;100506.23;1825734;78;21485;-68
2021/03/30 09:11:35;;;;;;;;;;;;;;;13.17;100.00;100501.93;1825653;78;20109;-68
2021/03/30 09:14:07;;;;;;;;;;;;;;;13.27;100.00;100498.48;1797553;78;20179;-68
2021/03/30 09:16:38;;;;;;;;;;;;;;;13.40;99.08;100493.67;1824808;78;20136;-68
2021/03/30 09:19:31;;;;;;;;;;;;;;;13.50;98.44;100496.80;1810962;78;20226;-68
2021/03/30 09:22:03;;;;;;;;;;;;;;;13.62;96.79;100498.60;1807003;78;21372;-68
2021/03/30 09:24:44;;;;;;;;;;;;;;;13.74;94.98;100501.31;1807606;78;20553;-68
2021/03/30 09:27:07;;;;;;;;;;;;;;;13.86;92.44;100502.67;1806933;78;20138;-67
2021/03/30 09:29:40;;;;;;;;;;;;;;;13.99;91.58;100500.92;1807613;78;20161;-67
2021/03/30 09:32:10;;;;;;;;;;;;;;;14.12;88.96;100501.37;1742322;79;20146;-67
2021/03/30 09:34:40;;;;;;;;;;;;;;;14.22;89.36;100500.09;1807737;78;22275;-67
2021/03/30 09:37:09;;;;;;;;;;;;;;;14.26;88.41;100500.09;1807542;79;20129;-66
2021/03/30 09:39:39;;;;;;;;;;;;;;;14.31;86.83;100497.44;1807603;79;20113;-67
2021/03/30 09:42:09;;;;;;;;;;;;;;;14.23;82.57;100493.90;1807625;79;20130;-67
2021/03/30 09:44:43;;;;;;;;;;;;;;;14.19;81.55;100499.65;1807816;78;20233;-67
2021/03/30 09:47:13;;;;;;;;;;;;;;;14.31;81.70;100498.77;1807839;78;21239;-67
2021/03/30 09:49:44;;;;;;;;;;;;;;;14.34;81.21;100496.11;1807125;79;20766;-66
2021/03/30 09:52:15;;;;;;;;;;;;;;;14.40;78.95;100492.13;1807756;78;20496;-62
2021/03/30 09:54:44;;;;;;;;;;;;;;;14.38;81.09;100495.23;1807820;79;20213;-64
2021/03/30 09:57:18;;;;;;;;;;;;;;;14.28;82.25;100494.34;1817576;79;20129;-64
2021/03/30 09:59:47;;;;;;;;;;;;;;;14.29;81.81;100494.78;1791624;79;21205;-64
2021/03/30 10:02:19;;;;;;;;;;;;;;;14.27;80.64;100493.90;1820092;78;20516;-64
2021/03/30 10:04:54;;;;;;;;;;;;;;;14.25;80.25;100493.02;1820641;79;20248;-64
2021/03/30 10:07:32;;;;;;;;;;;;;;;14.26;80.55;100486.83;1820691;78;20129;-64
2021/03/30 10:10:05;;;;;;;;;;;;;;;14.29;80.02;100485.50;1820769;78;20475;-64
2021/03/30 10:12:37;;;;;;;;;;;;;;;14.35;77.75;100477.53;1817746;79;21197;-64
2021/03/30 10:15:09;;;;;;;;;;;;;;;14.41;79.17;100479.30;1819905;77;20540;-64
2021/03/30 10:17:39;;;;;;;;;;;;;;;14.47;79.11;100482.87;1821904;77;20147;-64
2021/03/30 10:20:14;;;;;;;;;;;;;;;14.52;78.98;100481.98;1775025;79;20158;-64
2021/03/30 10:22:48;;;;;;;;;;;;;;;14.66;80.29;100488.16;1807778;78;20268;-63
2021/03/30 10:25:21;;;;;;;;;;;;;;;14.78;79.40;100476.22;1798771;79;21343;-63
2021/03/30 10:27:54;;;;;;;;;;;;;;;14.97;80.16;100478.38;1798964;79;20149;-64
2021/03/30 10:30:31;;;;;;;;;;;;;;;15.10;78.22;100476.12;1802653;79;20211;-64
2021/03/30 10:33:05;;;;;;;;;;;;;;;15.22;75.00;100468.58;1809736;79;20217;-64
2021/03/30 10:35:31;;;;;;;;;;;;;;;15.26;76.73;100468.56;1808341;79;20133;-65
2021/03/30 10:38:00;;;;;;;;;;;;;;;15.26;76.72;100467.67;1795120;80;21363;-65
2021/03/30 10:40:34;;;;;;;;;;;;;;;15.28;76.01;100468.11;1792850;79;20232;-65
2021/03/30 10:43:41;;;;;;;;;;;;;;;15.34;75.12;100468.52;1791653;79;20138;-64
2021/03/30 10:46:29;;;;;;;;;;;;;;;15.22;70.06;100468.58;1805841;79;20248;-64
2021/03/30 10:49:05;;;;;;;;;;;;;;;15.15;71.89;100461.07;1808402;79;20251;-64
2021/03/30 10:51:36;;;;;;;;;;;;;;;15.18;70.36;100460.17;1808357;79;21363;-65
2021/03/30 10:54:06;;;;;;;;;;;;;;;15.28;67.75;100457.92;1808286;79;20157;-65
2021/03/30 10:56:36;;;;;;;;;;;;;;;15.33;61.98;100451.69;1804538;79;20130;-66
2021/03/30 10:59:13;;;;;;;;;;;;;;;15.39;59.17;100440.14;1790493;79;20241;-65
2021/03/30 11:01:41;;;;;;;;;;;;;;;15.57;58.91;100447.13;1789785;79;20212;-65
2021/03/30 11:04:10;;;;;;;;;;;;;;;15.76;59.47;100448.84;1804599;79;22189;-65
2021/03/30 11:06:42;;;;;;;;;;;;;;;15.77;58.90;100439.97;1808196;79;20165;-65
2021/03/30 11:09:12;;;;;;;;;;;;;;;15.91;58.99;100439.42;1806726;79;20256;-65
2021/03/30 11:11:41;;;;;;;;;;;;;;;16.05;55.99;100435.33;1776565;81;20213;-65
2021/03/30 11:14:12;;;;;;;;;;;;;;;16.21;56.33;100435.67;1776646;81;20481;-65
2021/03/30 11:16:42;;;;;;;;;;;;;;;16.32;55.55;100435.57;1776498;80;21187;-65
2021/03/30 11:19:11;;;;;;;;;;;;;;;16.41;56.18;100429.27;1801596;79;20225;-64
2021/03/30 11:21:41;;;;;;;;;;;;;;;16.33;56.08;100428.02;1804442;79;20158;-66
2021/03/30 11:24:17;;;;;;;;;;;;;;;16.18;53.20;100430.81;1802193;79;20233;-65
2021/03/30 11:26:44;;;;;;;;;;;;;;;16.08;53.13;100423.33;1783778;79;20153;-65
2021/03/30 11:29:18;;;;;;;;;;;;;;;16.10;54.90;100429.55;1738729;82;21378;-64
2021/03/30 11:34:17;;;;;;;;;;;;;;;16.26;55.11;100420.98;1738657;82;20139;-65
2021/03/30 11:36:46;;;;;;;;;;;;;;;16.34;55.49;100420.46;1726314;82;20248;-66
2021/03/30 11:39:16;;;;;;;;;;;;;;;16.40;54.77;100414.19;1743824;81;20272;-65
2021/03/30 11:41:46;;;;;;;;;;;;;;;16.45;54.43;100409.70;1732062;82;20278;-66
2021/03/30 11:44:16;;;;;;;;;;;;;;;16.44;55.22;100410.16;1726518;82;20302;-66
2021/03/30 11:46:44;;;;;;;;;;;;;;;16.34;55.80;100412.02;1721346;82;20156;-65
2021/03/30 11:49:15;;;;;;;;;;;;;;;16.28;55.36;100402.77;1727272;82;20238;-65
2021/03/30 11:51:44;;;;;;;;;;;;;;;16.38;54.84;100403.56;1738896;82;20288;-65
2021/03/30 11:54:13;;;;;;;;;;;;;;;16.48;54.18;100401.23;1735901;82;21206;-65
2021/03/30 11:56:44;;;;;;;;;;;;;;;16.63;54.41;100402.88;1735449;82;20158;-66
2021/03/30 11:59:14;;;;;;;;;;;;;;;16.76;54.08;100390.34;1738403;82;20549;-66
2021/03/30 12:01:44;;;;;;;;;;;;;;;16.88;52.82;100389.75;1735459;82;20140;-65
2021/03/30 12:04:14;;;;;;;;;;;;;;;16.96;50.81;100385.66;1738130;81;20135;-65
2021/03/30 12:06:44;;;;;;;;;;;;;;;17.04;51.62;100386.47;1736215;81;21201;-66
2021/03/30 12:10:01;;;;;;;;;;;;;;;17.02;51.51;100382.91;1736358;82;20681;-65
2021/03/30 12:12:49;;;;;;;;;;;;;;;17.04;51.86;100379.80;1720156;82;20222;-66
2021/03/30 12:15:20;;;;;;;;;;;;;;;17.06;49.49;100379.78;1721090;83;20164;-66
2021/03/30 12:17:50;;;;;;;;;;;;;;;16.96;49.09;100373.66;1721225;82;20481;-66
2021/03/30 12:20:20;;;;;;;;;;;;;;;16.91;48.55;100368.83;1720953;83;21450;-66
2021/03/30 12:22:49;;;;;;;;;;;;;;;16.86;46.87;100369.34;1720938;83;20221;-66
2021/03/30 12:25:19;;;;;;;;;;;;;;;16.87;46.07;100365.33;1718077;82;20232;-66
2021/03/30 12:27:49;;;;;;;;;;;;;;;16.95;44.99;100362.11;1704657;83;20505;-66
2021/03/30 12:30:19;;;;;;;;;;;;;;;17.06;45.44;100355.80;1709130;83;20259;-66
2021/03/30 12:32:49;;;;;;;;;;;;;;;17.06;45.29;100355.34;1692064;85;21396;-67
2021/03/30 12:35:18;;;;;;;;;;;;;;;17.07;47.19;100361.55;1713104;83;20219;-66
2021/03/30 12:37:47;;;;;;;;;;;;;;;16.93;47.14;100355.04;1720785;83;20493;-66
2021/03/30 12:40:16;;;;;;;;;;;;;;;16.93;46.37;100355.92;1720810;83;20599;-66
2021/03/30 12:42:48;;;;;;;;;;;;;;;17.02;45.97;100354.92;1720917;83;20509;-65
2021/03/30 12:45:21;;;;;;;;;;;;;;;17.10;45.55;100352.19;1710676;81;22302;-66
2021/03/30 12:47:50;;;;;;;;;;;;;;;17.14;44.37;100352.57;1740045;82;20245;-66
2021/03/30 12:50:18;;;;;;;;;;;;;;;17.21;43.95;100355.13;1704932;83;20497;-65
2021/03/30 12:52:49;;;;;;;;;;;;;;;17.29;43.89;100352.35;1692039;84;20229;-65
2021/03/30 12:55:19;;;;;;;;;;;;;;;17.36;44.37;100352.69;1710843;81;20498;-66
2021/03/30 12:57:47;;;;;;;;;;;;;;;17.28;45.13;100346.59;1731368;81;21373;-65
2021/03/30 13:00:17;;;;;;;;;;;;;;;17.14;43.75;100345.91;1708621;81;20433;-65
2021/03/30 13:02:47;;;;;;;;;;;;;;;17.00;44.77;100349.61;1691848;85;20161;-66
2021/03/30 13:05:16;;;;;;;;;;;;;;;16.91;44.19;100349.73;1723025;81;20228;-66
2021/03/30 13:07:45;;;;;;;;;;;;;;;16.77;44.51;100348.14;1731365;81;20220;-65
2021/03/30 13:10:15;;;;;;;;;;;;;;;16.64;43.85;100346.04;1759331;81;21211;-64
2021/03/30 13:12:45;;;;;;;;;;;;;;;16.66;44.92;100344.27;1731640;81;20223;-65